Strona główna
METAR-TAF:

METAR-TAF

Lotnisko :

Iranshahr, Iran

Szerokość geograficzna: 27-12N, Długość geograficzna: 060-42E, wysokość: 591 m

Aktualna obserwacja pogody

Raport powstał 1 godzina i 8 minut temu, godzina 19:00 UTC
Wiatr 8 kt od wschodnio-południowy wschód
Temperatura 36°C
Wilgotność 25%
Ciśnienie 1005 hPa
Widzialność 10 km lub więcej
Brak chmur poniżej 1500 m i brak chmur cumulonimbus

METAR: OIZI 251900Z 12008KT CAVOK 36/13 Q1005

czas: 00:38 (20:08 UTC)


TAF: brakujący

Obserwacja i prognoza pogody dla ponad 4000 lotnisk (raport METAR i TAF).

Dostępne stacje oznaczono żółtymi i czerwonymi punktami na mapie.

Najedź kursorem aby zobaczyć nazwę stacji.

Kliknij aby zobaczyć obserwacje i prognozy pogody.

Aby zmienić mapę: kliknij na zielony przycisk z czarnym krzyżykiem, aby powiększyć; na zielony przycisk z myślnikiem, aby pomniejszyć; na zielone strzałki, aby przejść do map sąsiednich.


METAR-TAF: